Irene, SD (57037)

11:57 PM CST on December 08, 2016 (GMT -0600)
Turkey Ridge | | Change Station

Elev 1644 ft 43.26 °N, 97.36 °W | Updated 7 minutes ago

Clear
Clear
3.4 °F
Feels Like -5 °F
N
4.0
Wind Variable Wind from NW
Gusts 7.0 mph

Today
High -- | Low -- °F
--% Chance of Precip.
Yesterday
High -- | Low -- °F
Precip. -- in
Pressure 30.64 in
Visibility 10.0 miles
Clouds Clear
Windchill -5 °F
Dew Point -0 °F
Humidity 84%
Rainfall 0.00 in
Snow Depth Not available.
7:47 AM 4:53 PM
Waxing Gibbous, 70% visible
METAR KYKN 090535Z AUTO 31010KT 10SM CLR M14/M18 A3064 RMK AO1
Pressure 30.64 in
Visibility 10.0 miles
Clouds Clear
Windchill -5 °F
Dew Point -0 °F
Humidity 84%
Rainfall 0.00 in
Snow Depth Not available.
7:47 AM 4:53 PM
Waxing Gibbous, 70% visible
METAR KYKN 090535Z AUTO 31010KT 10SM CLR M14/M18 A3064 RMK AO1

10-Day Weather Forecast

Almanac

Astronomy

Dec. 08, 2016 Rise Set
Actual Time
Civil Twilight
Nautical Twilight
Astronomical Twilight
Moon
Length of Visible Light
Length of Day
Tomorrow will be .
, % of the Moon is Illuminated

Today's Extremes

State Highs State Lows

Community

WunderPhotos

Upload Photos

1,956,374 photos uploaded!

WunderBlog® & News

Nearby

Air Quality

  Air Quality AQ Index Pollutant
Not available.

Snow Depth

Station Depth Elevation

Earthquake Activity

City Distance Mag. Time & Date
Minimum magnitude displayed is 2.5.

Coastal Water Temperatures

Place Temperature

Stations

Nearby Weather Stations

Station Location Temp. Windchill Dew Point Humidity Wind Precip. Elev Updated Type
                   

Watches & Warnings

There are currently no watches in effect.